Time,TemperatureF,DewpointF,PressureIn,WindDirection,WindDirectionDegrees,WindSpeedMPH,WindSpeedGustMPH,Humidity,HourlyPrecipIn,Conditions,Clouds,dailyrainin,SoftwareType,DateUTC
2013-06-13 00:01:00,73.0,73.0,29.70,SW,225,0.0,2.0,99,0.00,,,0.00,,2013-06-12 14:01:00,
2013-06-13 00:11:00,73.0,73.0,29.69,SW,225,0.0,2.0,99,0.00,,,0.00,,2013-06-12 14:11:00,
2013-06-13 00:23:00,73.0,73.0,29.68,SW,225,0.0,1.0,99,0.00,,,0.00,,2013-06-12 14:23:00,
2013-06-13 00:33:00,73.0,73.0,29.68,SW,225,0.0,3.0,99,0.00,,,0.00,,2013-06-12 14:33:00,
2013-06-13 00:43:00,73.0,73.0,29.68,SW,225,0.0,3.0,99,0.00,,,0.00,,2013-06-12 14:43:00,
2013-06-13 00:53:00,73.0,73.0,29.68,SW,225,0.0,3.0,99,0.00,,,0.00,,2013-06-12 14:53:00,
2013-06-13 01:01:00,74.0,74.0,29.68,SW,234,0.0,2.0,99,0.00,,,0.00,,2013-06-12 15:01:00,
2013-06-13 01:12:00,74.0,74.0,29.68,SW,234,0.0,2.0,99,0.00,,,0.00,,2013-06-12 15:12:00,
2013-06-13 01:23:00,74.0,74.0,29.68,SW,234,0.0,2.0,99,0.00,,,0.00,,2013-06-12 15:23:00,
2013-06-13 01:32:00,74.0,74.0,29.68,SW,234,0.0,2.0,99,0.00,,,0.00,,2013-06-12 15:32:00,
2013-06-13 01:43:00,74.0,74.0,29.67,SW,225,1.0,3.0,99,0.00,,,0.00,,2013-06-12 15:43:00,
2013-06-13 01:52:00,74.0,74.0,29.67,SW,225,1.0,3.0,99,0.00,,,0.00,,2013-06-12 15:52:00,
2013-06-13 02:01:00,74.0,74.0,29.67,SW,225,1.0,3.0,99,0.00,,,0.00,,2013-06-12 16:01:00,
2013-06-13 02:11:00,74.0,74.0,29.67,SW,225,1.0,3.0,99,0.00,,,0.00,,2013-06-12 16:11:00,
2013-06-13 02:33:00,74.0,74.0,29.65,SW,225,0.0,1.0,99,0.00,,,0.00,,2013-06-12 16:33:00,
2013-06-13 02:43:00,74.0,74.0,29.65,SW,225,0.0,1.0,99,0.00,,,0.00,,2013-06-12 16:43:00,
2013-06-13 02:52:00,74.0,74.0,29.65,SW,225,0.0,1.0,99,0.00,,,0.00,,2013-06-12 16:52:00,
2013-06-13 03:01:00,74.0,74.0,29.65,SW,225,0.0,1.0,99,0.00,,,0.00,,2013-06-12 17:01:00,
2013-06-13 03:42:00,74.0,74.0,29.64,SW,225,0.0,2.0,99,0.00,,,0.00,,2013-06-12 17:42:00,
2013-06-13 03:52:00,74.0,74.0,29.64,SW,225,0.0,2.0,99,0.00,,,0.00,,2013-06-12 17:52:00,
2013-06-13 04:02:00,74.0,74.0,29.64,SW,225,0.0,2.0,99,0.00,,,0.00,,2013-06-12 18:02:00,
2013-06-13 04:12:00,74.0,74.0,29.64,SW,225,0.0,2.0,99,0.00,,,0.00,,2013-06-12 18:12:00,
2013-06-13 04:22:00,73.0,73.0,29.64,SW,225,1.0,2.0,99,0.00,,,0.00,,2013-06-12 18:22:00,
2013-06-13 04:33:00,74.0,74.0,29.64,SW,225,0.0,2.0,99,0.00,,,0.00,,2013-06-12 18:33:00,
2013-06-13 04:43:00,74.0,74.0,29.64,SW,225,0.0,2.0,99,0.00,,,0.00,,2013-06-12 18:43:00,
2013-06-13 04:53:00,73.0,73.0,29.64,SW,225,0.0,1.0,99,0.00,,,0.00,,2013-06-12 18:53:00,
2013-06-13 05:01:00,73.0,73.0,29.65,North,0,0.0,0.0,99,0.00,,,0.00,,2013-06-12 19:01:00,
2013-06-13 05:11:00,73.0,73.0,29.65,North,0,0.0,0.0,99,0.00,,,0.00,,2013-06-12 19:11:00,
2013-06-13 05:22:00,73.0,73.0,29.64,North,0,0.0,0.0,99,0.00,,,0.00,,2013-06-12 19:22:00,
2013-06-13 05:32:00,73.0,73.0,29.64,North,0,0.0,0.0,99,0.00,,,0.00,,2013-06-12 19:32:00,
2013-06-13 05:42:00,73.0,73.0,29.66,SW,225,0.0,2.0,99,0.00,,,0.00,,2013-06-12 19:42:00,
2013-06-13 05:52:00,73.0,73.0,29.66,SW,225,0.0,2.0,99,0.00,,,0.00,,2013-06-12 19:52:00,
2013-06-13 06:01:00,73.0,73.0,29.66,SW,225,0.0,2.0,99,0.00,,,0.00,,2013-06-12 20:01:00,
2013-06-13 06:11:00,73.0,73.0,29.66,WSW,246,0.0,4.0,99,0.00,,,0.00,,2013-06-12 20:11:00,
2013-06-13 06:21:00,73.0,73.0,29.66,WSW,246,0.0,4.0,99,0.00,,,0.00,,2013-06-12 20:21:00,
2013-06-13 06:32:00,72.0,72.0,29.66,ESE,106,0.0,2.0,99,0.00,,,0.00,,2013-06-12 20:32:00,
2013-06-13 06:42:00,72.0,72.0,29.67,North,0,0.0,0.0,99,0.00,,,0.00,,2013-06-12 20:42:00,
2013-06-13 06:54:00,72.0,72.0,29.67,North,0,0.0,0.0,99,0.00,,,0.00,,2013-06-12 20:54:00,
2013-06-13 07:01:00,72.0,72.0,29.67,North,0,0.0,0.0,99,0.00,,,0.00,,2013-06-12 21:01:00,
2013-06-13 07:11:00,72.0,72.0,29.67,North,0,0.0,0.0,99,0.00,,,0.00,,2013-06-12 21:11:00,
2013-06-13 07:21:00,71.0,71.0,29.68,SE,135,0.0,4.0,99,0.00,,,0.00,,2013-06-12 21:21:00,
2013-06-13 07:33:00,71.0,71.0,29.68,SE,135,0.0,4.0,99,0.00,,,0.00,,2013-06-12 21:33:00,
2013-06-13 07:43:00,71.0,71.0,29.68,SE,135,0.0,4.0,99,0.00,,,0.00,,2013-06-12 21:43:00,
2013-06-13 07:53:00,72.0,72.0,29.69,North,0,0.0,0.0,99,0.00,,,0.00,,2013-06-12 21:53:00,
2013-06-13 08:01:00,72.0,72.0,29.69,North,0,0.0,0.0,99,0.00,,,0.00,,2013-06-12 22:01:00,
2013-06-13 08:11:00,72.0,72.0,29.69,North,0,0.0,0.0,99,0.00,,,0.00,,2013-06-12 22:11:00,
2013-06-13 08:22:00,72.0,72.0,29.69,North,0,0.0,0.0,99,0.00,,,0.00,,2013-06-12 22:22:00,
2013-06-13 08:32:00,86.0,86.0,29.70,North,0,0.0,0.0,99,0.00,,,0.00,,2013-06-12 22:32:00,
2013-06-13 08:43:00,85.0,82.0,29.70,West,270,0.0,2.0,91,0.00,,,0.00,,2013-06-12 22:43:00,
2013-06-13 08:52:00,85.0,82.0,29.70,West,270,0.0,2.0,91,0.00,,,0.00,,2013-06-12 22:52:00,
2013-06-13 09:01:00,85.0,82.0,29.70,West,270,0.0,2.0,91,0.00,,,0.00,,2013-06-12 23:01:00,
2013-06-13 09:11:00,85.0,82.0,29.70,West,270,0.0,2.0,91,0.00,,,0.00,,2013-06-12 23:11:00,
2013-06-13 09:22:00,85.0,82.0,29.70,West,270,0.0,2.0,91,0.00,,,0.00,,2013-06-12 23:22:00,
2013-06-13 10:11:00,86.0,78.0,29.70,SW,225,1.0,3.0,78,0.00,,,0.00,,2013-06-13 00:11:00,
2013-06-13 10:22:00,86.0,78.0,29.70,SW,225,1.0,3.0,78,0.00,,,0.00,,2013-06-13 00:22:00,
2013-06-13 10:32:00,86.0,78.0,29.70,SW,225,1.0,3.0,78,0.00,,,0.00,,2013-06-13 00:32:00,
2013-06-13 10:42:00,88.0,78.0,29.71,SW,219,1.0,5.0,73,0.00,,,0.00,,2013-06-13 00:42:00,
2013-06-13 10:52:00,87.0,78.0,29.71,SW,225,1.0,4.0,75,0.00,,,0.00,,2013-06-13 00:52:00,
2013-06-13 11:01:00,87.0,78.0,29.71,SW,230,0.0,3.0,75,0.00,,,0.00,,2013-06-13 01:01:00,
2013-06-13 11:11:00,87.0,78.0,29.71,SW,230,0.0,3.0,75,0.00,,,0.00,,2013-06-13 01:11:00,
2013-06-13 11:22:00,87.0,78.0,29.71,SW,230,0.0,3.0,75,0.00,,,0.00,,2013-06-13 01:22:00,
2013-06-13 11:32:00,87.0,78.0,29.71,SW,230,0.0,3.0,75,0.00,,,0.00,,2013-06-13 01:32:00,
2013-06-13 11:42:00,87.0,78.0,29.71,SW,230,0.0,3.0,75,0.00,,,0.00,,2013-06-13 01:42:00,
2013-06-13 12:01:00,91.0,76.0,29.67,SW,216,2.0,4.0,62,0.00,,,0.00,,2013-06-13 02:01:00,
2013-06-13 12:11:00,91.0,76.0,29.67,SSW,210,1.0,4.0,61,0.00,,,0.00,,2013-06-13 02:11:00,
2013-06-13 12:22:00,92.0,78.0,29.66,ESE,106,0.0,4.0,63,0.00,,,0.00,,2013-06-13 02:22:00,
2013-06-13 12:32:00,92.0,78.0,29.66,ESE,106,0.0,4.0,63,0.00,,,0.00,,2013-06-13 02:32:00,
2013-06-13 12:42:00,92.0,78.0,29.66,ESE,106,0.0,4.0,63,0.00,,,0.00,,2013-06-13 02:42:00,
2013-06-13 12:52:00,93.0,78.0,29.64,SE,131,3.0,5.0,61,0.00,,,0.00,,2013-06-13 02:52:00,
2013-06-13 13:01:00,93.0,78.0,29.64,SE,131,3.0,5.0,61,0.00,,,0.00,,2013-06-13 03:01:00,
2013-06-13 13:11:00,93.0,78.0,29.64,SE,131,3.0,5.0,61,0.00,,,0.00,,2013-06-13 03:11:00,
2013-06-13 13:22:00,93.0,78.0,29.64,SE,131,3.0,5.0,61,0.00,,,0.00,,2013-06-13 03:22:00,
2013-06-13 13:33:00,93.0,78.0,29.64,SE,131,3.0,5.0,61,0.00,,,0.00,,2013-06-13 03:33:00,
2013-06-13 13:52:00,95.0,78.0,29.62,SSE,160,0.0,4.0,58,0.00,,,0.00,,2013-06-13 03:52:00,
2013-06-13 14:01:00,95.0,78.0,29.62,SSW,201,0.0,3.0,59,0.00,,,0.00,,2013-06-13 04:01:00,
2013-06-13 14:11:00,95.0,78.0,29.62,SSW,201,0.0,3.0,59,0.00,,,0.00,,2013-06-13 04:11:00,
2013-06-13 14:22:00,94.0,78.0,29.62,SSE,160,2.0,6.0,60,0.00,,,0.00,,2013-06-13 04:22:00,
2013-06-13 14:32:00,94.0,78.0,29.62,SSE,160,2.0,6.0,60,0.00,,,0.00,,2013-06-13 04:32:00,
2013-06-13 14:43:00,91.0,78.0,29.61,SE,146,0.0,5.0,66,0.00,,,0.00,,2013-06-13 04:43:00,
2013-06-13 14:53:00,91.0,78.0,29.61,SE,146,0.0,5.0,66,0.00,,,0.00,,2013-06-13 04:53:00,
2013-06-13 15:02:00,91.0,78.0,29.61,SE,146,0.0,5.0,66,0.00,,,0.00,,2013-06-13 05:02:00,
2013-06-13 15:11:00,91.0,78.0,29.61,SE,146,0.0,5.0,66,0.00,,,0.00,,2013-06-13 05:11:00,
2013-06-13 15:23:00,91.0,78.0,29.61,SE,146,0.0,5.0,66,0.00,,,0.00,,2013-06-13 05:23:00,
2013-06-13 15:33:00,90.0,79.0,29.60,ESE,110,1.0,4.0,71,0.00,,,0.00,,2013-06-13 05:33:00,
2013-06-13 15:43:00,90.0,79.0,29.60,ESE,110,1.0,4.0,71,0.00,,,0.00,,2013-06-13 05:43:00,
2013-06-13 15:53:00,90.0,79.0,29.60,ESE,110,1.0,4.0,71,0.00,,,0.00,,2013-06-13 05:53:00,
2013-06-13 16:02:00,90.0,80.0,29.60,SSE,154,0.0,7.0,72,0.00,,,0.00,,2013-06-13 06:02:00,
2013-06-13 16:11:00,90.0,80.0,29.60,SSE,154,0.0,7.0,72,0.00,,,0.00,,2013-06-13 06:11:00,
2013-06-13 16:22:00,90.0,80.0,29.60,SSE,154,0.0,7.0,72,0.00,,,0.00,,2013-06-13 06:22:00,
2013-06-13 16:33:00,82.0,79.0,29.61,SSE,158,2.0,8.0,92,0.00,,,0.00,,2013-06-13 06:33:00,
2013-06-13 16:44:00,82.0,79.0,29.61,SSE,158,2.0,8.0,92,0.00,,,0.00,,2013-06-13 06:44:00,
2013-06-13 16:52:00,82.0,79.0,29.61,SSE,158,2.0,8.0,92,0.00,,,0.00,,2013-06-13 06:52:00,
2013-06-13 17:01:00,81.0,80.0,29.61,South,170,0.0,3.0,96,0.00,,,0.00,,2013-06-13 07:01:00,
2013-06-13 17:11:00,81.0,80.0,29.61,South,170,0.0,3.0,96,0.00,,,0.00,,2013-06-13 07:11:00,
2013-06-13 17:22:00,80.0,79.0,29.61,ESE,106,0.0,3.0,96,0.00,,,0.00,,2013-06-13 07:22:00,
2013-06-13 17:33:00,79.0,78.0,29.62,SSE,164,0.0,2.0,98,0.00,,,0.00,,2013-06-13 07:33:00,
2013-06-13 17:42:00,79.0,78.0,29.62,SSE,164,0.0,2.0,98,0.00,,,0.00,,2013-06-13 07:42:00,
2013-06-13 17:52:00,78.0,78.0,29.62,SW,225,0.0,1.0,99,0.00,,,0.00,,2013-06-13 07:52:00,
2013-06-13 18:01:00,78.0,78.0,29.62,North,0,0.0,0.0,99,0.00,,,0.00,,2013-06-13 08:01:00,
2013-06-13 18:11:00,78.0,78.0,29.62,North,0,0.0,0.0,99,0.00,,,0.00,,2013-06-13 08:11:00,
2013-06-13 18:22:00,78.0,78.0,29.62,North,0,0.0,0.0,99,0.00,,,0.00,,2013-06-13 08:22:00,
2013-06-13 18:32:00,78.0,78.0,29.62,North,0,0.0,0.0,99,0.00,,,0.00,,2013-06-13 08:32:00,
2013-06-13 18:42:00,78.0,78.0,29.62,North,0,0.0,0.0,99,0.00,,,0.00,,2013-06-13 08:42:00,
2013-06-13 19:01:00,74.0,74.0,29.65,North,0,0.0,0.0,99,0.00,,,0.00,,2013-06-13 09:01:00,
2013-06-13 19:11:00,73.0,73.0,29.65,North,0,0.0,0.0,99,0.00,,,0.00,,2013-06-13 09:11:00,
2013-06-13 19:22:00,73.0,73.0,29.65,North,0,0.0,0.0,99,0.00,,,0.00,,2013-06-13 09:22:00,
2013-06-13 19:32:00,73.0,73.0,29.65,North,0,0.0,0.0,99,0.00,,,0.00,,2013-06-13 09:32:00,
2013-06-13 19:42:00,73.0,73.0,29.65,North,0,0.0,0.0,99,0.00,,,0.00,,2013-06-13 09:42:00,
2013-06-13 19:52:00,73.0,73.0,29.65,North,0,0.0,0.0,99,0.00,,,0.00,,2013-06-13 09:52:00,
2013-06-13 20:01:00,73.0,73.0,29.65,North,0,0.0,0.0,99,0.00,,,0.00,,2013-06-13 10:01:00,
2013-06-13 21:11:00,72.0,72.0,29.67,North,0,0.0,0.0,99,0.00,,,0.00,,2013-06-13 11:11:00,
2013-06-13 21:23:00,72.0,72.0,29.68,North,0,0.0,0.0,99,0.00,,,0.00,,2013-06-13 11:23:00,
2013-06-13 21:32:00,72.0,72.0,29.68,North,0,0.0,0.0,99,0.00,,,0.00,,2013-06-13 11:32:00,
2013-06-13 21:42:00,72.0,72.0,29.68,North,0,0.0,0.0,99,0.00,,,0.00,,2013-06-13 11:42:00,
2013-06-13 21:52:00,72.0,72.0,29.68,North,0,0.0,0.0,99,0.00,,,0.00,,2013-06-13 11:52:00,
2013-06-13 22:01:00,72.0,72.0,29.68,North,0,0.0,0.0,99,0.00,,,0.00,,2013-06-13 12:01:00,
2013-06-13 22:11:00,72.0,72.0,29.68,North,0,0.0,0.0,99,0.00,,,0.00,,2013-06-13 12:11:00,
2013-06-13 22:22:00,72.0,72.0,29.68,North,0,0.0,0.0,99,0.00,,,0.00,,2013-06-13 12:22:00,
2013-06-13 22:43:00,70.0,70.0,29.68,North,0,0.0,0.0,99,0.00,,,0.00,,2013-06-13 12:43:00,
2013-06-13 22:52:00,70.0,70.0,29.68,North,0,0.0,0.0,99,0.00,,,0.00,,2013-06-13 12:52:00,
2013-06-13 23:01:00,70.0,70.0,29.68,North,0,0.0,0.0,99,0.00,,,0.00,,2013-06-13 13:01:00,
2013-06-13 23:11:00,70.0,70.0,29.68,North,0,0.0,0.0,99,0.00,,,0.00,,2013-06-13 13:11:00,
2013-06-13 23:21:00,70.0,70.0,29.67,West,263,0.0,2.0,99,0.00,,,0.00,,2013-06-13 13:21:00,
2013-06-13 23:32:00,70.0,70.0,29.67,West,263,0.0,2.0,99,0.00,,,0.00,,2013-06-13 13:32:00,
2013-06-13 23:43:00,69.0,69.0,29.67,North,0,0.0,0.0,99,0.00,,,0.00,,2013-06-13 13:43:00,
2013-06-13 23:53:00,69.0,69.0,29.67,North,0,0.0,0.0,99,0.00,,,0.00,,2013-06-13 13:53:00,